createdAt,value
2022-08-20T00:00:00.611Z,16
2022-08-20T00:01:02.011Z,17
2022-08-20T00:02:00.743Z,13
2022-08-20T00:03:00.610Z,16
2022-08-20T00:04:01.599Z,15
2022-08-20T00:05:00.613Z,17
2022-08-20T00:06:00.610Z,16
2022-08-20T00:07:00.620Z,15
2022-08-20T00:08:00.625Z,17
2022-08-20T00:09:00.613Z,16
2022-08-20T00:10:00.615Z,17
2022-08-20T00:11:00.627Z,16
2022-08-20T00:12:00.708Z,15
2022-08-20T00:13:00.621Z,14
2022-08-20T00:14:00.617Z,16
2022-08-20T00:15:00.672Z,16
2022-08-20T00:17:00.615Z,16
2022-08-20T00:18:00.614Z,15
2022-08-20T00:19:00.615Z,15
2022-08-20T00:20:00.696Z,15
2022-08-20T00:21:00.625Z,17
2022-08-20T00:22:00.619Z,16
2022-08-20T00:23:00.622Z,18
2022-08-20T00:24:00.626Z,16
2022-08-20T00:25:00.626Z,15
2022-08-20T00:26:00.617Z,17
2022-08-20T00:27:00.622Z,18
2022-08-20T00:28:00.632Z,18
2022-08-20T00:29:00.623Z,15
2022-08-20T00:31:00.613Z,16
2022-08-20T00:32:00.637Z,16
2022-08-20T00:33:00.627Z,15
2022-08-20T00:34:00.641Z,16
2022-08-20T00:37:00.633Z,15
2022-08-20T00:38:01.025Z,15
2022-08-20T00:39:00.633Z,17
2022-08-20T00:40:00.661Z,15
2022-08-20T00:41:00.731Z,14
2022-08-20T00:42:00.636Z,16
2022-08-20T00:43:00.643Z,17
2022-08-20T00:44:01.675Z,16
2022-08-20T00:45:00.629Z,14
2022-08-20T00:47:00.646Z,16
2022-08-20T00:48:00.644Z,16
2022-08-20T00:49:01.712Z,16
2022-08-20T00:50:00.634Z,18
2022-08-20T00:51:00.650Z,18
2022-08-20T00:52:00.640Z,17
2022-08-20T00:53:00.642Z,15
2022-08-20T00:54:00.637Z,17
2022-08-20T00:55:00.636Z,16
2022-08-20T00:56:00.637Z,15
2022-08-20T00:57:00.639Z,17
2022-08-20T00:58:01.941Z,17
2022-08-20T00:59:00.647Z,15
2022-08-20T01:00:00.641Z,15
2022-08-20T01:01:00.658Z,15
2022-08-20T01:02:00.695Z,16
2022-08-20T01:03:00.652Z,15
2022-08-20T01:04:00.657Z,13
2022-08-20T01:05:00.654Z,15
2022-08-20T01:06:00.653Z,15
2022-08-20T01:08:00.642Z,15
2022-08-20T01:09:00.654Z,16
2022-08-20T01:10:00.644Z,16
2022-08-20T01:11:00.652Z,16
2022-08-20T01:12:00.645Z,15
2022-08-20T01:13:00.676Z,16
2022-08-20T01:14:00.722Z,16
2022-08-20T01:15:00.648Z,14
2022-08-20T01:16:00.653Z,15
2022-08-20T01:17:00.686Z,17
2022-08-20T01:18:00.656Z,15
2022-08-20T01:19:00.658Z,16
2022-08-20T01:20:00.649Z,16
2022-08-20T01:21:00.646Z,16
2022-08-20T01:22:00.654Z,16
2022-08-20T01:23:00.698Z,17
2022-08-20T01:24:00.716Z,16
2022-08-20T01:25:00.668Z,17
2022-08-20T01:26:00.674Z,16
2022-08-20T01:27:00.666Z,15
2022-08-20T01:29:00.661Z,16
2022-08-20T01:30:00.654Z,17
2022-08-20T01:31:00.661Z,17
2022-08-20T01:32:00.654Z,15
2022-08-20T01:33:00.659Z,12
2022-08-20T01:35:00.680Z,16
2022-08-20T01:36:00.670Z,15
2022-08-20T01:37:00.671Z,17
2022-08-20T01:38:00.665Z,17
2022-08-20T01:39:00.668Z,17
2022-08-20T01:40:00.726Z,15
2022-08-20T01:41:00.673Z,18
2022-08-20T01:42:00.668Z,16
2022-08-20T01:43:00.668Z,18
2022-08-20T01:44:00.680Z,17
2022-08-20T01:45:01.791Z,15
2022-08-20T01:46:00.664Z,17
2022-08-20T01:47:00.682Z,15
2022-08-20T01:48:01.118Z,14
2022-08-20T01:50:00.668Z,16
2022-08-20T01:51:00.665Z,16
2022-08-20T01:52:00.693Z,16
2022-08-20T01:53:00.683Z,16
2022-08-20T01:54:00.689Z,15
2022-08-20T01:55:00.663Z,16
2022-08-20T01:56:00.674Z,15
2022-08-20T01:57:00.689Z,16
2022-08-20T01:58:00.677Z,16
2022-08-20T01:59:00.681Z,17
2022-08-20T02:00:00.674Z,17
2022-08-20T02:01:00.671Z,15
2022-08-20T02:02:00.767Z,16
2022-08-20T02:03:00.674Z,16
2022-08-20T02:05:00.686Z,16
2022-08-20T02:06:00.702Z,16
2022-08-20T02:07:00.675Z,15
2022-08-20T02:08:00.695Z,16
2022-08-20T02:09:00.699Z,15
2022-08-20T02:11:00.688Z,16
2022-08-20T02:12:00.771Z,17
2022-08-20T02:13:00.683Z,15
2022-08-20T02:14:00.682Z,14
2022-08-20T02:15:00.684Z,17
2022-08-20T02:16:00.683Z,16
2022-08-20T02:17:00.789Z,14
2022-08-20T02:18:00.684Z,17
2022-08-20T02:19:00.702Z,17
2022-08-20T02:20:00.700Z,16
2022-08-20T02:21:00.705Z,16
2022-08-20T02:22:00.687Z,17
2022-08-20T02:23:00.685Z,16
2022-08-20T02:24:00.682Z,14
2022-08-20T02:25:00.682Z,14
2022-08-20T02:26:00.703Z,17
2022-08-20T02:27:00.713Z,16
2022-08-20T02:28:00.695Z,17
2022-08-20T02:29:01.231Z,17
2022-08-20T02:30:00.703Z,17
2022-08-20T02:32:32.147Z,17
2022-08-20T02:33:00.689Z,13
2022-08-20T02:35:00.697Z,15
2022-08-20T02:37:00.698Z,18
2022-08-20T02:38:00.742Z,16
2022-08-20T02:39:00.694Z,15
2022-08-20T02:40:00.816Z,14
2022-08-20T02:41:00.698Z,16
2022-08-20T02:42:00.714Z,13
2022-08-20T02:44:00.705Z,13
2022-08-20T02:45:00.734Z,11
2022-08-20T02:46:00.704Z,13
2022-08-20T02:47:00.701Z,13
2022-08-20T02:48:00.704Z,12
2022-08-20T02:49:00.704Z,10
2022-08-20T02:50:00.698Z,10
2022-08-20T02:51:00.721Z,12
2022-08-20T02:52:00.707Z,11
2022-08-20T02:53:00.702Z,9
2022-08-20T02:55:00.735Z,10
2022-08-20T02:56:00.696Z,11
2022-08-20T02:57:00.790Z,11
2022-08-20T02:58:00.711Z,10
2022-08-20T02:59:00.707Z,11
2022-08-20T03:00:00.709Z,9
2022-08-20T03:02:01.205Z,10
2022-08-20T03:03:00.705Z,11
2022-08-20T03:04:00.712Z,9
2022-08-20T03:05:00.707Z,9
2022-08-20T03:06:00.714Z,11
2022-08-20T03:07:00.703Z,10
2022-08-20T03:08:00.715Z,10
2022-08-20T03:09:00.706Z,10
2022-08-20T03:10:00.723Z,11
2022-08-20T03:11:00.722Z,10
2022-08-20T03:12:00.708Z,11
2022-08-20T03:13:00.739Z,10
2022-08-20T03:14:00.721Z,9
2022-08-20T03:16:00.711Z,12
2022-08-20T03:17:00.723Z,10
2022-08-20T03:18:00.717Z,9
2022-08-20T03:19:00.752Z,12
2022-08-20T03:20:00.715Z,12
2022-08-20T03:21:00.730Z,12
2022-08-20T03:22:00.721Z,11
2022-08-20T03:23:00.741Z,13
2022-08-20T03:24:00.739Z,12
2022-08-20T03:25:00.720Z,10
2022-08-20T03:26:00.739Z,14
2022-08-20T03:27:00.713Z,13
2022-08-20T03:28:01.155Z,10
2022-08-20T03:29:00.729Z,12
2022-08-20T03:30:00.716Z,11
2022-08-20T03:31:00.743Z,12
2022-08-20T03:32:03.011Z,12
2022-08-20T03:33:00.723Z,12
2022-08-20T03:34:00.727Z,11
2022-08-20T03:35:00.719Z,12
2022-08-20T03:36:00.810Z,11
2022-08-20T03:37:00.739Z,10
2022-08-20T03:38:00.846Z,11
2022-08-20T03:39:00.728Z,11
2022-08-20T03:40:00.784Z,12
2022-08-20T03:42:00.724Z,12
2022-08-20T03:43:00.868Z,11
2022-08-20T03:44:00.735Z,10
2022-08-20T03:45:00.730Z,12
2022-08-20T03:46:00.741Z,11
2022-08-20T03:47:00.733Z,12
2022-08-20T03:48:00.784Z,13
2022-08-20T03:49:00.977Z,12
2022-08-20T03:50:00.745Z,13
2022-08-20T03:51:00.753Z,13
2022-08-20T03:52:00.748Z,11
2022-08-20T03:53:00.749Z,13
2022-08-20T03:54:00.749Z,13
2022-08-20T03:56:02.470Z,12
2022-08-20T03:57:00.735Z,12
2022-08-20T03:58:00.765Z,14
2022-08-20T03:59:00.738Z,14
2022-08-20T04:00:00.755Z,12
2022-08-20T04:01:00.780Z,12
2022-08-20T04:02:00.799Z,12
2022-08-20T04:03:00.872Z,14
2022-08-20T04:04:00.761Z,15
2022-08-20T04:05:00.791Z,14
2022-08-20T04:06:00.740Z,14
2022-08-20T04:07:00.746Z,14
2022-08-20T04:08:03.057Z,12
2022-08-20T04:09:00.753Z,14
2022-08-20T04:10:00.748Z,14
2022-08-20T04:12:00.759Z,15
2022-08-20T04:13:01.614Z,15
2022-08-20T04:14:00.739Z,13
2022-08-20T04:15:00.747Z,15
2022-08-20T04:17:00.767Z,13
2022-08-20T04:18:00.758Z,16
2022-08-20T04:19:01.750Z,14
2022-08-20T04:20:00.749Z,14
2022-08-20T04:21:00.755Z,15
2022-08-20T04:22:00.764Z,16
2022-08-20T04:23:00.799Z,15
2022-08-20T04:24:00.760Z,14
2022-08-20T04:25:00.781Z,13
2022-08-20T04:26:00.786Z,14
2022-08-20T04:27:00.753Z,14
2022-08-20T04:28:00.744Z,15
2022-08-20T04:29:00.750Z,14
2022-08-20T04:30:00.756Z,16
2022-08-20T04:31:00.756Z,14
2022-08-20T04:32:00.758Z,13
2022-08-20T04:33:00.776Z,16
2022-08-20T04:35:00.751Z,15
2022-08-20T04:36:00.761Z,16
2022-08-20T04:38:00.764Z,15
2022-08-20T04:39:00.760Z,16
2022-08-20T04:40:00.849Z,15
2022-08-20T04:42:00.765Z,14
2022-08-20T04:43:00.769Z,14
2022-08-20T04:45:00.754Z,14
2022-08-20T04:46:00.755Z,16
2022-08-20T04:47:00.754Z,15
2022-08-20T04:48:00.780Z,15
2022-08-20T04:49:00.758Z,13
2022-08-20T04:50:00.759Z,15
2022-08-20T04:51:00.759Z,16
2022-08-20T04:52:00.762Z,15
2022-08-20T04:53:00.772Z,17
2022-08-20T04:54:00.761Z,18
2022-08-20T04:55:00.767Z,17
2022-08-20T04:56:00.764Z,14
2022-08-20T04:57:00.764Z,17
2022-08-20T04:59:00.765Z,14
2022-08-20T05:01:01.365Z,17
2022-08-20T05:02:00.769Z,18
2022-08-20T05:03:00.769Z,17
2022-08-20T05:04:00.774Z,18
2022-08-20T05:05:00.768Z,20
2022-08-20T05:06:00.771Z,19
2022-08-20T05:07:00.770Z,18
2022-08-20T05:08:00.775Z,19
2022-08-20T05:09:00.780Z,18
2022-08-20T05:10:00.775Z,17
2022-08-20T05:11:33.548Z,19
2022-08-20T05:12:00.812Z,17
2022-08-20T05:13:00.776Z,22
2022-08-20T05:14:00.777Z,19
2022-08-20T05:15:00.778Z,17
2022-08-20T05:16:00.775Z,20
2022-08-20T05:17:00.792Z,20
2022-08-20T05:19:00.771Z,18
2022-08-20T05:20:00.775Z,19
2022-08-20T05:22:00.816Z,17
2022-08-20T05:23:00.790Z,19
2022-08-20T05:24:00.781Z,16
2022-08-20T05:25:00.786Z,20
2022-08-20T05:26:00.779Z,19
2022-08-20T05:27:00.820Z,21
2022-08-20T05:28:00.782Z,18
2022-08-20T05:29:00.788Z,19
2022-08-20T05:30:00.776Z,19
2022-08-20T05:31:00.786Z,18
2022-08-20T05:32:00.854Z,17
2022-08-20T05:33:00.778Z,18
2022-08-20T05:34:00.785Z,17
2022-08-20T05:35:00.797Z,16
2022-08-20T05:36:00.788Z,17
2022-08-20T05:37:00.793Z,17
2022-08-20T05:38:00.788Z,19
2022-08-20T05:39:00.781Z,18
2022-08-20T05:40:00.832Z,19
2022-08-20T05:43:00.786Z,17
2022-08-20T05:44:00.784Z,14
2022-08-20T05:45:00.789Z,14
2022-08-20T05:46:00.782Z,17
2022-08-20T05:47:00.785Z,16
2022-08-20T05:48:00.796Z,17
2022-08-20T05:49:00.789Z,15
2022-08-20T05:50:00.798Z,16
2022-08-20T05:51:00.798Z,18
2022-08-20T05:52:00.791Z,19
2022-08-20T05:53:00.791Z,14
2022-08-20T05:54:00.809Z,14
2022-08-20T05:55:00.787Z,18
2022-08-20T05:56:00.791Z,17
2022-08-20T05:58:00.807Z,15
2022-08-20T05:59:00.802Z,16
2022-08-20T06:00:00.799Z,16
2022-08-20T06:01:00.883Z,16
2022-08-20T06:02:00.802Z,17
2022-08-20T06:03:00.799Z,15
2022-08-20T06:04:00.810Z,16
2022-08-20T06:05:00.810Z,17
2022-08-20T06:06:00.801Z,14
2022-08-20T06:07:00.798Z,18
2022-08-20T06:09:00.791Z,20
2022-08-20T06:10:00.801Z,17
2022-08-20T06:11:00.793Z,15
2022-08-20T06:12:00.792Z,16
2022-08-20T06:13:00.801Z,16
2022-08-20T06:15:00.808Z,18
2022-08-20T06:16:00.800Z,18
2022-08-20T06:17:00.795Z,17
2022-08-20T06:18:00.963Z,16
2022-08-20T06:19:02.761Z,16
2022-08-20T06:20:00.801Z,15
2022-08-20T06:21:00.799Z,16
2022-08-20T06:22:00.821Z,15
2022-08-20T06:23:00.816Z,19
2022-08-20T06:24:01.004Z,16
2022-08-20T06:26:00.799Z,15
2022-08-20T06:27:00.810Z,14
2022-08-20T06:28:00.814Z,15
2022-08-20T06:29:00.808Z,17
2022-08-20T06:30:00.804Z,15
2022-08-20T06:31:00.812Z,13
2022-08-20T06:32:00.803Z,15
2022-08-20T06:33:00.816Z,15
2022-08-20T06:34:00.821Z,14
2022-08-20T06:36:00.807Z,14
2022-08-20T06:37:00.831Z,14
2022-08-20T06:38:00.813Z,15
2022-08-20T06:40:00.863Z,14
2022-08-20T06:41:00.824Z,15
2022-08-20T06:42:00.841Z,14
2022-08-20T06:43:00.816Z,17
2022-08-20T06:44:00.813Z,16
2022-08-20T06:45:00.837Z,16
2022-08-20T06:46:00.814Z,16
2022-08-20T06:47:00.820Z,13
2022-08-20T06:49:00.814Z,16
2022-08-20T06:50:00.813Z,15
2022-08-20T06:51:01.205Z,15
2022-08-20T06:52:00.816Z,15
2022-08-20T06:53:00.852Z,14
2022-08-20T06:54:00.824Z,14
2022-08-20T06:55:00.827Z,14
2022-08-20T06:57:00.840Z,13
2022-08-20T06:58:00.830Z,14
2022-08-20T06:59:00.826Z,11
2022-08-20T07:00:00.828Z,13
2022-08-20T07:02:00.825Z,14
2022-08-20T07:03:00.844Z,14
2022-08-20T07:04:00.846Z,12
2022-08-20T07:06:00.849Z,13
2022-08-20T07:07:00.832Z,14
2022-08-20T07:08:00.838Z,14
2022-08-20T07:09:00.826Z,13
2022-08-20T07:10:00.826Z,15
2022-08-20T07:11:00.831Z,13
2022-08-20T07:12:00.844Z,13
2022-08-20T07:13:00.828Z,13
2022-08-20T07:15:00.833Z,13
2022-08-20T07:16:00.827Z,11
2022-08-20T07:19:00.852Z,11
2022-08-20T07:20:00.836Z,12
2022-08-20T07:21:00.826Z,12
2022-08-20T07:22:00.840Z,10
2022-08-20T07:24:00.841Z,10
2022-08-20T07:25:00.844Z,13
2022-08-20T07:26:00.837Z,10
2022-08-20T07:27:00.857Z,12
2022-08-20T07:28:00.842Z,12
2022-08-20T07:29:01.222Z,10
2022-08-20T07:30:00.845Z,11
2022-08-20T07:31:00.849Z,9
2022-08-20T07:33:00.856Z,11
2022-08-20T07:34:00.847Z,10
2022-08-20T07:35:00.840Z,11
2022-08-20T07:36:00.847Z,10
2022-08-20T07:37:00.849Z,10
2022-08-20T07:39:00.846Z,9
2022-08-20T07:40:00.866Z,9
2022-08-20T07:41:00.840Z,6
2022-08-20T07:42:00.851Z,7
2022-08-20T07:44:00.884Z,6
2022-08-20T07:45:00.842Z,8
2022-08-20T07:46:00.857Z,7
2022-08-20T07:47:00.849Z,5
2022-08-20T07:48:00.846Z,7
2022-08-20T07:49:00.879Z,6
2022-08-20T07:51:00.852Z,6
2022-08-20T07:52:00.865Z,6
2022-08-20T07:53:00.856Z,5
2022-08-20T07:55:00.860Z,5
2022-08-20T07:56:00.861Z,5
2022-08-20T07:58:00.856Z,5
2022-08-20T07:59:00.853Z,6
2022-08-20T08:00:00.860Z,5
2022-08-20T08:01:00.995Z,6
2022-08-20T08:02:00.863Z,7
2022-08-20T08:04:00.854Z,6
2022-08-20T08:05:00.854Z,6
2022-08-20T08:06:00.858Z,7
2022-08-20T08:07:00.887Z,8
2022-08-20T08:08:02.842Z,9
2022-08-20T08:09:00.869Z,7
2022-08-20T08:10:00.866Z,8
2022-08-20T08:11:00.869Z,7
2022-08-20T08:12:00.865Z,9
2022-08-20T08:13:00.864Z,8
2022-08-20T08:14:00.871Z,7
2022-08-20T08:15:00.858Z,10
2022-08-20T08:16:00.868Z,7
2022-08-20T08:17:00.867Z,8
2022-08-20T08:19:00.857Z,7
2022-08-20T08:20:00.864Z,7
2022-08-20T08:21:00.871Z,7
2022-08-20T08:22:00.864Z,6
2022-08-20T08:23:00.885Z,6
2022-08-20T08:24:00.895Z,8
2022-08-20T08:25:00.873Z,6
2022-08-20T08:26:00.910Z,7
2022-08-20T08:27:00.871Z,6
2022-08-20T08:29:00.866Z,7
2022-08-20T08:30:00.878Z,7
2022-08-20T08:31:00.880Z,6
2022-08-20T08:32:00.871Z,7
2022-08-20T08:33:00.877Z,7
2022-08-20T08:34:00.868Z,7
2022-08-20T08:35:00.876Z,6
2022-08-20T08:36:00.879Z,6
2022-08-20T08:37:00.893Z,6
2022-08-20T08:40:00.928Z,6
2022-08-20T08:41:00.885Z,5
2022-08-20T08:42:00.906Z,8
2022-08-20T08:43:00.886Z,6
2022-08-20T08:44:00.884Z,8
2022-08-20T08:47:00.883Z,7
2022-08-20T08:48:00.880Z,7
2022-08-20T08:49:00.907Z,6
2022-08-20T08:50:00.898Z,6
2022-08-20T08:51:00.882Z,5
2022-08-20T08:52:00.886Z,5
2022-08-20T08:53:00.903Z,5
2022-08-20T08:54:04.736Z,11
2022-08-20T08:56:00.888Z,5
2022-08-20T08:57:00.885Z,6
2022-08-20T08:58:00.897Z,7
2022-08-20T08:59:00.897Z,8
2022-08-20T09:01:01.802Z,5
2022-08-20T09:02:00.976Z,6
2022-08-20T09:03:01.219Z,6
2022-08-20T09:04:00.887Z,12
2022-08-20T09:05:00.895Z,21
2022-08-20T09:06:00.885Z,19
2022-08-20T09:07:00.888Z,23
2022-08-20T09:08:00.900Z,24
2022-08-20T09:09:00.885Z,23
2022-08-20T09:10:00.889Z,27
2022-08-20T09:11:00.899Z,27
2022-08-20T09:12:00.891Z,26
2022-08-20T09:13:00.894Z,22
2022-08-20T09:14:00.915Z,26
2022-08-20T09:15:00.916Z,25
2022-08-20T09:16:00.938Z,24
2022-08-20T09:17:00.893Z,25
2022-08-20T09:18:00.925Z,23
2022-08-20T09:19:00.894Z,25
2022-08-20T09:20:00.910Z,28
2022-08-20T09:22:00.891Z,26
2022-08-20T09:23:00.900Z,27
2022-08-20T09:24:00.904Z,24
2022-08-20T09:25:00.912Z,29
2022-08-20T09:26:00.903Z,26
2022-08-20T09:27:00.900Z,28
2022-08-20T09:28:00.906Z,28
2022-08-20T09:29:00.910Z,27
2022-08-20T09:30:00.900Z,28
2022-08-20T09:32:00.916Z,29
2022-08-20T09:33:00.902Z,26
2022-08-20T09:34:00.912Z,32
2022-08-20T09:35:00.916Z,30
2022-08-20T09:36:00.908Z,32
2022-08-20T09:37:00.916Z,29
2022-08-20T09:38:00.919Z,31
2022-08-20T09:39:03.078Z,29
2022-08-20T09:40:00.951Z,31
2022-08-20T09:41:00.940Z,29
2022-08-20T09:42:00.910Z,30
2022-08-20T09:44:00.918Z,27
2022-08-20T09:45:00.915Z,26
2022-08-20T09:46:00.916Z,29
2022-08-20T09:47:00.921Z,26
2022-08-20T09:48:00.913Z,27
2022-08-20T09:49:00.917Z,30
2022-08-20T09:50:00.928Z,33
2022-08-20T09:51:00.918Z,27
2022-08-20T09:53:00.915Z,27
2022-08-20T09:54:00.922Z,25
2022-08-20T09:56:00.922Z,28
2022-08-20T09:57:00.919Z,28
2022-08-20T09:58:00.929Z,28
2022-08-20T09:59:02.947Z,25
2022-08-20T10:00:00.926Z,25
2022-08-20T10:01:00.920Z,24
2022-08-20T10:02:00.969Z,25
2022-08-20T10:05:00.913Z,24
2022-08-20T10:06:00.928Z,23
2022-08-20T10:07:00.933Z,22
2022-08-20T10:08:00.933Z,26
2022-08-20T10:09:00.930Z,20
2022-08-20T10:10:00.931Z,23
2022-08-20T10:11:00.928Z,20
2022-08-20T10:12:00.937Z,25
2022-08-20T10:13:00.931Z,23
2022-08-20T10:14:00.928Z,24
2022-08-20T10:15:00.937Z,24
2022-08-20T10:17:00.958Z,18
2022-08-20T10:18:00.936Z,22
2022-08-20T10:19:00.929Z,26
2022-08-20T10:20:00.940Z,21
2022-08-20T10:21:00.933Z,22
2022-08-20T10:23:00.934Z,24
2022-08-20T10:24:00.927Z,24
2022-08-20T10:25:00.934Z,30
2022-08-20T10:26:00.938Z,23
2022-08-20T10:27:00.932Z,19
2022-08-20T10:28:00.944Z,19
2022-08-20T10:29:00.937Z,19
2022-08-20T10:30:00.955Z,20
2022-08-20T10:31:00.928Z,24
2022-08-20T10:33:00.940Z,21
2022-08-20T10:34:00.933Z,18
2022-08-20T10:35:00.940Z,19
2022-08-20T10:38:00.943Z,19
2022-08-20T10:39:00.936Z,21
2022-08-20T10:40:01.055Z,18
2022-08-20T10:41:00.965Z,19
2022-08-20T10:42:00.945Z,19
2022-08-20T10:43:00.946Z,20
2022-08-20T10:44:00.954Z,20
2022-08-20T10:45:00.958Z,21
2022-08-20T10:46:00.941Z,20
2022-08-20T10:47:00.952Z,20
2022-08-20T10:48:00.952Z,23
2022-08-20T10:49:00.964Z,21
2022-08-20T10:50:00.951Z,20
2022-08-20T10:51:00.956Z,18
2022-08-20T10:52:00.959Z,23
2022-08-20T10:53:00.949Z,19
2022-08-20T10:54:00.946Z,23
2022-08-20T10:55:00.966Z,19
2022-08-20T10:56:00.943Z,22
2022-08-20T10:57:00.956Z,24
2022-08-20T11:00:00.966Z,19
2022-08-20T11:01:00.972Z,20
2022-08-20T11:02:01.059Z,19
2022-08-20T11:03:00.966Z,16
2022-08-20T11:04:00.949Z,15
2022-08-20T11:05:00.956Z,17
2022-08-20T11:06:00.961Z,16
2022-08-20T11:07:00.961Z,18
2022-08-20T11:08:01.148Z,19
2022-08-20T11:09:00.954Z,17
2022-08-20T11:11:00.960Z,15
2022-08-20T11:12:00.965Z,12
2022-08-20T11:13:01.000Z,14
2022-08-20T11:14:00.968Z,13
2022-08-20T11:15:00.966Z,13
2022-08-20T11:16:00.967Z,17
2022-08-20T11:17:00.960Z,14
2022-08-20T11:18:00.965Z,17
2022-08-20T11:20:00.969Z,15
2022-08-20T11:21:00.964Z,15
2022-08-20T11:22:00.964Z,14
2022-08-20T11:23:00.975Z,17
2022-08-20T11:24:02.965Z,17
2022-08-20T11:25:00.976Z,14
2022-08-20T11:26:00.964Z,16
2022-08-20T11:27:00.969Z,17
2022-08-20T11:28:00.972Z,14
2022-08-20T11:30:00.966Z,14
2022-08-20T11:31:00.975Z,13
2022-08-20T11:33:00.973Z,20
2022-08-20T11:34:00.973Z,21
2022-08-20T11:35:09.840Z,16
2022-08-20T11:36:00.975Z,14
2022-08-20T11:37:00.975Z,17
2022-08-20T11:39:00.970Z,17
2022-08-20T11:41:00.984Z,16
2022-08-20T11:42:00.995Z,15
2022-08-20T11:43:17.573Z,20
2022-08-20T11:44:20.433Z,16
2022-08-20T11:45:00.981Z,18
2022-08-20T11:46:00.977Z,14
2022-08-20T11:47:00.985Z,12
2022-08-20T11:48:00.981Z,13
2022-08-20T11:49:00.992Z,11
2022-08-20T11:50:00.992Z,13
2022-08-20T11:51:00.979Z,15
2022-08-20T11:52:00.985Z,15
2022-08-20T11:53:01.635Z,15
2022-08-20T11:54:00.999Z,16
2022-08-20T11:55:01.011Z,15
2022-08-20T11:56:00.984Z,19
2022-08-20T11:58:01.299Z,17
2022-08-20T12:00:00.992Z,12
2022-08-20T12:01:00.994Z,16
2022-08-20T12:02:03.117Z,15
2022-08-20T12:03:01.248Z,16
2022-08-20T12:04:01.020Z,18
2022-08-20T12:05:00.996Z,17
2022-08-20T12:07:00.995Z,12
2022-08-20T12:08:00.993Z,13
2022-08-20T12:09:00.999Z,13
2022-08-20T12:10:01.013Z,13
2022-08-20T12:11:01.038Z,14
2022-08-20T12:12:01.010Z,20
2022-08-20T12:13:02.719Z,17
2022-08-20T12:14:01.001Z,19
2022-08-20T12:15:00.998Z,17
2022-08-20T12:16:01.002Z,17
2022-08-20T12:17:01.011Z,22
2022-08-20T12:18:01.071Z,15
2022-08-20T12:19:01.010Z,17
2022-08-20T12:20:01.038Z,14
2022-08-20T12:21:01.001Z,14
2022-08-20T12:22:01.005Z,15
2022-08-20T12:23:00.993Z,21
2022-08-20T12:24:01.015Z,17
2022-08-20T12:25:01.023Z,16
2022-08-20T12:26:01.014Z,16
2022-08-20T12:28:01.018Z,17
2022-08-20T12:30:01.001Z,16
2022-08-20T12:31:01.034Z,16
2022-08-20T12:32:01.003Z,16
2022-08-20T12:33:01.007Z,17
2022-08-20T12:34:01.010Z,16
2022-08-20T12:35:01.044Z,10
2022-08-20T12:36:01.020Z,9
2022-08-20T12:37:01.033Z,6
2022-08-20T12:38:01.014Z,6
2022-08-20T12:39:01.012Z,4
2022-08-20T12:40:01.123Z,6
2022-08-20T12:41:01.010Z,5
2022-08-20T12:42:01.015Z,6
2022-08-20T12:44:01.026Z,4
2022-08-20T12:45:01.017Z,5
2022-08-20T12:46:01.019Z,4
2022-08-20T12:47:01.029Z,3
2022-08-20T12:49:01.013Z,6
2022-08-20T12:50:01.110Z,5
2022-08-20T12:51:01.024Z,5
2022-08-20T12:52:01.021Z,7
2022-08-20T12:53:01.016Z,6
2022-08-20T12:54:01.025Z,6
2022-08-20T12:55:01.021Z,5
2022-08-20T12:56:01.027Z,4
2022-08-20T12:57:01.020Z,4
2022-08-20T12:58:01.017Z,5
2022-08-20T12:59:01.030Z,7
2022-08-20T13:00:01.111Z,4
2022-08-20T13:01:01.078Z,6
2022-08-20T13:02:13.958Z,5
2022-08-20T13:03:01.027Z,4
2022-08-20T13:05:04.947Z,4
2022-08-20T13:06:01.035Z,3
2022-08-20T13:07:01.053Z,8
2022-08-20T13:08:01.043Z,4
2022-08-20T13:10:01.117Z,3
2022-08-20T13:11:01.027Z,6
2022-08-20T13:12:01.037Z,5
2022-08-20T13:13:01.032Z,7
2022-08-20T13:14:01.028Z,7
2022-08-20T13:15:01.036Z,6
2022-08-20T13:16:01.033Z,7
2022-08-20T13:17:01.051Z,5
2022-08-20T13:18:01.041Z,6
2022-08-20T13:19:01.062Z,5
2022-08-20T13:20:01.051Z,4
2022-08-20T13:21:01.040Z,7
2022-08-20T13:22:01.032Z,4
2022-08-20T13:23:01.031Z,5
2022-08-20T13:24:01.039Z,6
2022-08-20T13:25:01.059Z,5
2022-08-20T13:26:01.035Z,6
2022-08-20T13:27:01.038Z,7
2022-08-20T13:28:01.037Z,5
2022-08-20T13:29:01.037Z,6
2022-08-20T13:31:01.044Z,4
2022-08-20T13:32:01.053Z,6
2022-08-20T13:33:01.054Z,5
2022-08-20T13:34:01.055Z,5
2022-08-20T13:35:01.048Z,5
2022-08-20T13:36:01.059Z,5
2022-08-20T13:37:01.043Z,4
2022-08-20T13:39:01.047Z,7
2022-08-20T13:40:01.087Z,4
2022-08-20T13:42:01.058Z,5
2022-08-20T13:44:01.059Z,5
2022-08-20T13:47:01.048Z,4
2022-08-20T13:48:01.044Z,6
2022-08-20T13:49:01.061Z,7
2022-08-20T13:50:01.062Z,8
2022-08-20T13:51:01.067Z,7
2022-08-20T13:53:01.047Z,6
2022-08-20T13:54:01.061Z,5
2022-08-20T13:55:01.059Z,5
2022-08-20T13:56:01.058Z,5
2022-08-20T13:57:01.062Z,7
2022-08-20T13:58:01.070Z,6
2022-08-20T13:59:01.059Z,4
2022-08-20T14:00:01.067Z,6
2022-08-20T14:01:01.151Z,6
2022-08-20T14:02:05.187Z,6
2022-08-20T14:03:01.064Z,5
2022-08-20T14:05:01.074Z,7
2022-08-20T14:07:01.071Z,5
2022-08-20T14:08:01.061Z,5
2022-08-20T14:09:01.064Z,5
2022-08-20T14:10:01.059Z,5
2022-08-20T14:11:01.074Z,7
2022-08-20T14:12:01.069Z,6
2022-08-20T14:13:01.076Z,7
2022-08-20T14:14:01.072Z,6
2022-08-20T14:15:01.081Z,5
2022-08-20T14:16:01.083Z,7
2022-08-20T14:17:01.063Z,7
2022-08-20T14:18:01.070Z,5
2022-08-20T14:19:01.073Z,5
2022-08-20T14:20:01.899Z,7
2022-08-20T14:21:01.086Z,6
2022-08-20T14:22:01.086Z,5
2022-08-20T14:23:01.077Z,8
2022-08-20T14:24:01.076Z,6
2022-08-20T14:26:01.091Z,7
2022-08-20T14:27:01.090Z,6
2022-08-20T14:28:01.083Z,6
2022-08-20T14:29:01.074Z,5
2022-08-20T14:30:01.084Z,7
2022-08-20T14:31:01.087Z,7
2022-08-20T14:33:01.082Z,7
2022-08-20T14:34:01.091Z,6
2022-08-20T14:35:01.091Z,5
2022-08-20T14:36:01.091Z,6
2022-08-20T14:37:01.084Z,9
2022-08-20T14:38:01.097Z,8
2022-08-20T14:39:01.099Z,4
2022-08-20T14:40:01.159Z,5
2022-08-20T14:41:01.090Z,6
2022-08-20T14:42:01.086Z,8
2022-08-20T14:43:01.092Z,5
2022-08-20T14:44:01.099Z,6
2022-08-20T14:45:01.098Z,6
2022-08-20T14:47:01.090Z,5
2022-08-20T14:48:01.100Z,5
2022-08-20T14:49:01.097Z,6
2022-08-20T14:50:01.092Z,5
2022-08-20T14:51:01.113Z,8
2022-08-20T14:52:01.095Z,7
2022-08-20T14:53:01.103Z,6
2022-08-20T14:54:01.106Z,5
2022-08-20T14:56:01.084Z,4
2022-08-20T14:57:02.078Z,7
2022-08-20T14:58:01.086Z,5
2022-08-20T15:00:01.120Z,6
2022-08-20T15:01:01.183Z,5
2022-08-20T15:02:01.095Z,5
2022-08-20T15:04:01.102Z,6
2022-08-20T15:05:01.108Z,6
2022-08-20T15:06:01.120Z,6
2022-08-20T15:08:01.093Z,7
2022-08-20T15:09:01.103Z,6
2022-08-20T15:10:01.123Z,6
2022-08-20T15:11:01.093Z,5
2022-08-20T15:12:01.097Z,6
2022-08-20T15:13:01.104Z,5
2022-08-20T15:14:01.099Z,7
2022-08-20T15:15:14.135Z,7
2022-08-20T15:16:01.112Z,5
2022-08-20T15:17:01.110Z,4
2022-08-20T15:18:01.110Z,5
2022-08-20T15:19:01.103Z,6
2022-08-20T15:20:01.141Z,7
2022-08-20T15:21:01.120Z,6
2022-08-20T15:22:01.116Z,6
2022-08-20T15:23:01.109Z,6
2022-08-20T15:24:01.124Z,4
2022-08-20T15:25:01.110Z,7
2022-08-20T15:27:01.108Z,7
2022-08-20T15:28:01.950Z,5
2022-08-20T15:30:01.145Z,5
2022-08-20T15:31:01.137Z,7
2022-08-20T15:32:01.122Z,4
2022-08-20T15:34:01.119Z,6
2022-08-20T15:35:01.117Z,9
2022-08-20T15:36:01.134Z,6
2022-08-20T15:39:01.120Z,5
2022-08-20T15:40:01.255Z,5
2022-08-20T15:41:01.115Z,4
2022-08-20T15:42:01.118Z,6
2022-08-20T15:43:01.453Z,7
2022-08-20T15:44:01.136Z,7
2022-08-20T15:45:01.161Z,8
2022-08-20T15:46:01.126Z,6
2022-08-20T15:48:01.136Z,7
2022-08-20T15:49:01.133Z,5
2022-08-20T15:50:01.130Z,5
2022-08-20T15:52:01.125Z,6
2022-08-20T15:53:01.126Z,7
2022-08-20T15:54:01.139Z,5
2022-08-20T15:55:01.128Z,5
2022-08-20T15:56:01.129Z,10
2022-08-20T15:57:01.129Z,7
2022-08-20T15:58:01.133Z,3
2022-08-20T15:59:01.138Z,6
2022-08-20T16:00:01.152Z,4
2022-08-20T16:01:04.969Z,4
2022-08-20T16:02:01.128Z,6
2022-08-20T16:03:01.130Z,7
2022-08-20T16:04:01.129Z,7
2022-08-20T16:05:01.133Z,7
2022-08-20T16:06:01.135Z,6
2022-08-20T16:07:01.133Z,6
2022-08-20T16:09:01.141Z,8
2022-08-20T16:10:01.128Z,6
2022-08-20T16:11:01.153Z,5
2022-08-20T16:12:01.141Z,6
2022-08-20T16:13:01.138Z,7
2022-08-20T16:14:01.141Z,6
2022-08-20T16:15:01.140Z,9
2022-08-20T16:16:01.140Z,6
2022-08-20T16:17:01.634Z,7
2022-08-20T16:18:01.133Z,8
2022-08-20T16:19:01.148Z,9